createdAt,value
2019-02-04T00:09:48.459Z,0.28
2019-02-04T00:19:48.463Z,0.38
2019-02-04T00:29:48.587Z,0.37
2019-02-04T00:39:48.422Z,0.34
2019-02-04T00:49:48.431Z,0.41
2019-02-04T00:59:48.581Z,0.52
2019-02-04T01:09:48.474Z,0.57
2019-02-04T01:19:48.479Z,0.58
2019-02-04T01:29:48.501Z,0.61
2019-02-04T01:39:48.602Z,0.84
2019-02-04T01:49:48.473Z,0.87
2019-02-04T01:59:48.509Z,0.70
2019-02-04T02:09:48.428Z,0.55
2019-02-04T02:19:48.500Z,0.53
2019-02-04T02:29:48.497Z,0.52
2019-02-04T02:39:48.569Z,0.44
2019-02-04T02:49:48.392Z,0.44
2019-02-04T02:59:48.486Z,0.38
2019-02-04T03:09:48.568Z,0.32
2019-02-04T03:19:48.544Z,0.43
2019-02-04T03:29:48.381Z,0.46
2019-02-04T03:39:48.389Z,0.50
2019-02-04T03:49:48.472Z,0.45
2019-02-04T03:59:48.479Z,0.52
2019-02-04T04:09:49.361Z,0.58
2019-02-04T04:19:48.432Z,0.61
2019-02-04T04:29:49.347Z,0.63
2019-02-04T04:39:48.398Z,0.58
2019-02-04T04:49:48.451Z,0.46
2019-02-04T04:59:48.371Z,0.46
2019-02-04T05:09:48.419Z,0.48
2019-02-04T05:19:48.359Z,0.63
2019-02-04T05:29:48.266Z,0.73
2019-02-04T05:39:48.462Z,0.71
2019-02-04T05:49:49.528Z,0.86
2019-02-04T05:59:48.397Z,0.95
2019-02-04T06:09:48.401Z,0.98
2019-02-04T06:19:48.501Z,1.06
2019-02-04T06:29:48.447Z,1.06
2019-02-04T06:39:48.460Z,1.03
2019-02-04T06:49:48.543Z,1.06
2019-02-04T06:59:48.639Z,1.11
2019-02-04T07:09:48.445Z,1.18
2019-02-04T07:19:48.407Z,1.19
2019-02-04T07:29:48.492Z,1.25
2019-02-04T07:39:48.550Z,1.32
2019-02-04T07:49:48.402Z,1.44
2019-02-04T07:59:48.565Z,1.60
2019-02-04T08:09:48.399Z,1.69
2019-02-04T08:19:48.369Z,1.82
2019-02-04T08:29:48.449Z,1.92
2019-02-04T08:39:48.529Z,1.95
2019-02-04T08:49:58.001Z,1.98
2019-02-04T08:59:48.450Z,2.05
2019-02-04T09:09:49.381Z,2.21
2019-02-04T09:19:48.401Z,2.38
2019-02-04T09:29:50.413Z,2.56
2019-02-04T09:39:48.413Z,2.65
2019-02-04T09:49:49.441Z,2.89
2019-02-04T09:59:48.460Z,3.07
2019-02-04T10:09:48.363Z,3.15
2019-02-04T10:19:48.439Z,3.32
2019-02-04T10:29:48.296Z,3.30
2019-02-04T10:39:48.486Z,3.55
2019-02-04T10:49:48.274Z,3.70
2019-02-04T10:59:48.430Z,3.72
2019-02-04T11:09:48.439Z,3.85
2019-02-04T11:19:48.410Z,3.94
2019-02-04T11:29:48.434Z,3.93
2019-02-04T11:39:48.420Z,4.17
2019-02-04T11:49:48.302Z,4.25
2019-02-04T11:59:48.413Z,4.17
2019-02-04T12:09:48.328Z,4.09
2019-02-04T12:19:48.392Z,4.09
2019-02-04T12:29:48.360Z,4.17
2019-02-04T12:39:48.199Z,4.09
2019-02-04T12:49:48.406Z,4.04
2019-02-04T12:59:48.308Z,4.06
2019-02-04T13:09:48.323Z,4.07
2019-02-04T13:19:48.324Z,4.01
2019-02-04T13:29:48.441Z,4.03
2019-02-04T13:39:50.336Z,3.99
2019-02-04T13:49:48.423Z,4.04
2019-02-04T13:59:48.940Z,3.97
2019-02-04T14:09:48.542Z,3.95
2019-02-04T14:19:48.364Z,3.86
2019-02-04T14:29:48.391Z,3.88
2019-02-04T14:39:48.353Z,3.85
2019-02-04T14:49:48.413Z,3.83
2019-02-04T14:59:48.347Z,3.76
2019-02-04T15:09:48.197Z,3.72
2019-02-04T15:19:48.292Z,3.68
2019-02-04T15:29:48.302Z,3.67
2019-02-04T15:39:48.381Z,3.70
2019-02-04T15:49:50.671Z,3.70
2019-02-04T15:59:48.245Z,3.65
2019-02-04T16:09:49.241Z,3.56
2019-02-04T16:19:48.352Z,3.50
2019-02-04T16:29:48.215Z,3.48
2019-02-04T16:39:48.239Z,3.45
2019-02-04T16:49:48.234Z,3.43
2019-02-04T16:59:48.173Z,3.35
2019-02-04T17:09:48.153Z,3.34
2019-02-04T17:19:48.229Z,3.36
2019-02-04T17:29:48.215Z,3.45
2019-02-04T17:39:48.426Z,3.37
2019-02-04T17:49:48.240Z,3.30
2019-02-04T17:59:48.287Z,3.17
2019-02-04T18:09:48.141Z,3.10
2019-02-04T18:19:48.140Z,3.13
2019-02-04T18:29:48.186Z,3.20
2019-02-04T18:39:48.189Z,3.22
2019-02-04T18:49:48.506Z,3.22
2019-02-04T18:59:48.325Z,3.22
2019-02-04T19:09:48.281Z,3.25
2019-02-04T19:19:48.196Z,3.28
2019-02-04T19:29:48.290Z,3.29
2019-02-04T19:39:49.304Z,3.26
2019-02-04T19:49:48.223Z,3.24
2019-02-04T19:59:50.471Z,3.22
2019-02-04T20:09:48.115Z,3.21
2019-02-04T20:19:48.186Z,3.19
2019-02-04T20:29:48.078Z,3.17
2019-02-04T20:39:48.093Z,3.12
2019-02-04T20:49:48.169Z,3.11
2019-02-04T20:59:48.275Z,3.12
2019-02-04T21:09:48.181Z,2.95
2019-02-04T21:19:48.173Z,2.85
2019-02-04T21:29:48.158Z,2.71
2019-02-04T21:39:48.087Z,2.68
2019-02-04T21:49:48.420Z,2.57
2019-02-04T21:59:48.213Z,2.50
2019-02-04T22:09:47.989Z,2.41
2019-02-04T22:19:48.070Z,2.42
2019-02-04T22:29:48.083Z,2.28
2019-02-04T22:39:48.118Z,2.32
2019-02-04T22:49:51.243Z,2.44
2019-02-04T22:59:48.079Z,2.59
2019-02-04T23:09:48.111Z,2.63
2019-02-04T23:19:48.060Z,2.57
2019-02-04T23:29:48.165Z,2.60
2019-02-04T23:39:48.102Z,2.68
2019-02-04T23:49:48.062Z,2.79
2019-02-04T23:59:48.095Z,2.84
